sensor_id;sensor_type;location;lat;lon;timestamp;pressure;altitude;pressure_sealevel;temperature;humidity
11345;BME280;5727;42.600;23.028;2022-07-17T00:00:19;94077.84;;;22.15;84.12
11345;BME280;5727;42.600;23.028;2022-07-17T00:02:46;94078.22;;;22.13;83.10
11345;BME280;5727;42.600;23.028;2022-07-17T00:05:13;94072.50;;;22.11;85.67
11345;BME280;5727;42.600;23.028;2022-07-17T00:07:41;94076.72;;;22.09;85.67
11345;BME280;5727;42.600;23.028;2022-07-17T00:10:08;94083.97;;;22.05;85.68
11345;BME280;5727;42.600;23.028;2022-07-17T00:12:35;94082.16;;;21.84;85.69
11345;BME280;5727;42.600;23.028;2022-07-17T00:15:02;94083.66;;;21.89;85.91
11345;BME280;5727;42.600;23.028;2022-07-17T00:17:29;94082.13;;;21.91;85.92
11345;BME280;5727;42.600;23.028;2022-07-17T00:19:56;94079.06;;;21.93;85.00
11345;BME280;5727;42.600;23.028;2022-07-17T00:22:22;94075.28;;;21.94;84.93
11345;BME280;5727;42.600;23.028;2022-07-17T00:24:50;94077.56;;;21.92;84.58
11345;BME280;5727;42.600;23.028;2022-07-17T00:27:17;94077.56;;;21.84;84.29
11345;BME280;5727;42.600;23.028;2022-07-17T00:29:44;94076.06;;;21.83;85.53
11345;BME280;5727;42.600;23.028;2022-07-17T00:32:11;94070.69;;;21.91;85.51
11345;BME280;5727;42.600;23.028;2022-07-17T00:34:37;94086.69;;;21.91;85.52
11345;BME280;5727;42.600;23.028;2022-07-17T00:37:04;94070.69;;;21.91;85.67
11345;BME280;5727;42.600;23.028;2022-07-17T00:39:31;94080.63;;;21.87;86.70
11345;BME280;5727;42.600;23.028;2022-07-17T00:41:59;94079.09;;;21.86;85.62
11345;BME280;5727;42.600;23.028;2022-07-17T00:44:26;94086.34;;;21.81;86.49
11345;BME280;5727;42.600;23.028;2022-07-17T00:46:54;94089.03;;;21.81;87.07
11345;BME280;5727;42.600;23.028;2022-07-17T00:49:20;94092.81;;;21.80;87.21
11345;BME280;5727;42.600;23.028;2022-07-17T00:51:47;94089.00;;;21.78;86.75
11345;BME280;5727;42.600;23.028;2022-07-17T00:54:15;94085.56;;;21.77;86.18
11345;BME280;5727;42.600;23.028;2022-07-17T00:56:46;94089.03;;;21.74;85.86
11345;BME280;5727;42.600;23.028;2022-07-17T00:59:14;94083.31;;;21.72;85.15
11345;BME280;5727;42.600;23.028;2022-07-17T01:01:41;94087.53;;;21.66;86.52
11345;BME280;5727;42.600;23.028;2022-07-17T01:04:08;94089.81;;;21.64;87.21
11345;BME280;5727;42.600;23.028;2022-07-17T01:06:35;94086.41;;;21.60;87.22
11345;BME280;5727;42.600;23.028;2022-07-17T01:09:02;94086.81;;;21.55;88.40
11345;BME280;5727;42.600;23.028;2022-07-17T01:11:29;94086.44;;;21.53;87.95
11345;BME280;5727;42.600;23.028;2022-07-17T01:13:57;94089.84;;;21.47;88.54
11345;BME280;5727;42.600;23.028;2022-07-17T01:16:25;94082.25;;;21.38;89.51
11345;BME280;5727;42.600;23.028;2022-07-17T01:18:53;94082.63;;;21.40;89.66
11345;BME280;5727;42.600;23.028;2022-07-17T01:21:21;94076.19;;;21.34;90.37
11345;BME280;5727;42.600;23.028;2022-07-17T01:23:48;94087.97;;;21.30;91.70
11345;BME280;5727;42.600;23.028;2022-07-17T01:26:15;94087.59;;;21.14;95.55
11345;BME280;5727;42.600;23.028;2022-07-17T01:28:41;94086.50;;;21.11;95.50
11345;BME280;5727;42.600;23.028;2022-07-17T01:31:08;94087.59;;;21.14;95.06
11345;BME280;5727;42.600;23.028;2022-07-17T01:33:35;94097.13;;;21.15;96.10
11345;BME280;5727;42.600;23.028;2022-07-17T01:36:02;94094.47;;;21.18;95.05
11345;BME280;5727;42.600;23.028;2022-07-17T01:38:31;94089.53;;;21.20;92.98
11345;BME280;5727;42.600;23.028;2022-07-17T01:40:57;94090.66;;;21.19;92.89
11345;BME280;5727;42.600;23.028;2022-07-17T01:43:24;94101.69;;;21.14;91.12
11345;BME280;5727;42.600;23.028;2022-07-17T01:45:51;94101.69;;;21.18;90.87
11345;BME280;5727;42.600;23.028;2022-07-17T01:48:25;94103.22;;;21.19;91.06
11345;BME280;5727;42.600;23.028;2022-07-17T01:50:52;94102.84;;;21.20;89.92
11345;BME280;5727;42.600;23.028;2022-07-17T01:53:19;94098.28;;;21.21;90.58
11345;BME280;5727;42.600;23.028;2022-07-17T01:55:47;94099.03;;;21.21;89.88
11345;BME280;5727;42.600;23.028;2022-07-17T01:58:15;94103.63;;;21.21;89.69
11345;BME280;5727;42.600;23.028;2022-07-17T02:00:42;94097.91;;;21.22;90.06
11345;BME280;5727;42.600;23.028;2022-07-17T02:03:09;94107.41;;;21.16;90.58
11345;BME280;5727;42.600;23.028;2022-07-17T02:05:36;94101.31;;;21.16;90.80
11345;BME280;5727;42.600;23.028;2022-07-17T02:08:03;94110.84;;;21.17;91.20
11345;BME280;5727;42.600;23.028;2022-07-17T02:10:30;94099.81;;;21.15;91.43
11345;BME280;5727;42.600;23.028;2022-07-17T02:12:58;94099.03;;;21.11;92.71
11345;BME280;5727;42.600;23.028;2022-07-17T02:15:25;94093.72;;;21.11;93.31
11345;BME280;5727;42.600;23.028;2022-07-17T02:17:52;94088.00;;;21.09;93.69
11345;BME280;5727;42.600;23.028;2022-07-17T02:20:19;94091.44;;;21.02;92.99
11345;BME280;5727;42.600;23.028;2022-07-17T02:22:46;94097.50;;;20.99;92.68
11345;BME280;5727;42.600;23.028;2022-07-17T02:25:13;94085.69;;;20.93;93.12
11345;BME280;5727;42.600;23.028;2022-07-17T02:27:41;94093.31;;;20.94;92.55
11345;BME280;5727;42.600;23.028;2022-07-17T02:30:11;94106.63;;;20.87;92.39
11345;BME280;5727;42.600;23.028;2022-07-17T02:32:38;94100.91;;;20.96;90.93
11345;BME280;5727;42.600;23.028;2022-07-17T02:35:07;94100.16;;;20.99;92.05
11345;BME280;5727;42.600;23.028;2022-07-17T02:37:34;94091.44;;;21.02;93.23
11345;BME280;5727;42.600;23.028;2022-07-17T02:40:02;94105.13;;;21.01;94.61
11345;BME280;5727;42.600;23.028;2022-07-17T02:42:29;94114.22;;;20.92;95.78
11345;BME280;5727;42.600;23.028;2022-07-17T02:44:58;94114.97;;;20.82;96.34
11345;BME280;5727;42.600;23.028;2022-07-17T02:47:29;94110.81;;;20.85;96.58
11345;BME280;5727;42.600;23.028;2022-07-17T02:49:56;94100.91;;;20.96;95.67
11345;BME280;5727;42.600;23.028;2022-07-17T02:52:24;94101.34;;;21.05;93.95
11345;BME280;5727;42.600;23.028;2022-07-17T02:54:51;94096.00;;;21.05;91.74
11345;BME280;5727;42.600;23.028;2022-07-17T02:57:17;94098.66;;;21.05;88.32
11345;BME280;5727;42.600;23.028;2022-07-17T02:59:45;94104.75;;;21.09;84.66
11345;BME280;5727;42.600;23.028;2022-07-17T03:02:12;94117.69;;;21.14;86.04
11345;BME280;5727;42.600;23.028;2022-07-17T03:04:40;94115.81;;;21.11;84.60
11345;BME280;5727;42.600;23.028;2022-07-17T03:07:07;94131.75;;;21.04;84.31
11345;BME280;5727;42.600;23.028;2022-07-17T03:09:34;94125.69;;;21.14;84.49
11345;BME280;5727;42.600;23.028;2022-07-17T03:12:00;94118.84;;;21.17;83.00
11345;BME280;5727;42.600;23.028;2022-07-17T03:14:27;94116.56;;;21.22;81.97
11345;BME280;5727;42.600;23.028;2022-07-17T03:16:54;94128.72;;;21.16;80.20
11345;BME280;5727;42.600;23.028;2022-07-17T03:19:20;94131.00;;;21.21;80.56
11345;BME280;5727;42.600;23.028;2022-07-17T03:21:49;94127.19;;;21.29;78.92
11345;BME280;5727;42.600;23.028;2022-07-17T03:24:16;94134.44;;;21.25;77.58
11345;BME280;5727;42.600;23.028;2022-07-17T03:26:42;94132.50;;;21.36;76.51
11345;BME280;5727;42.600;23.028;2022-07-17T03:29:09;94139.38;;;21.37;75.97
11345;BME280;5727;42.600;23.028;2022-07-17T03:31:36;94138.97;;;21.46;77.82
11345;BME280;5727;42.600;23.028;2022-07-17T03:34:03;94139.72;;;21.50;74.68
11345;BME280;5727;42.600;23.028;2022-07-17T03:36:30;94151.16;;;21.50;75.44
11345;BME280;5727;42.600;23.028;2022-07-17T03:38:58;94148.50;;;21.50;74.56
11345;BME280;5727;42.600;23.028;2022-07-17T03:41:25;94149.66;;;21.49;74.23
11345;BME280;5727;42.600;23.028;2022-07-17T03:43:51;94154.97;;;21.46;71.47
11345;BME280;5727;42.600;23.028;2022-07-17T03:46:18;94161.06;;;21.39;71.25
11345;BME280;5727;42.600;23.028;2022-07-17T03:48:45;94161.06;;;21.29;71.69
11345;BME280;5727;42.600;23.028;2022-07-17T03:51:12;94159.53;;;21.38;73.06
11345;BME280;5727;42.600;23.028;2022-07-17T03:53:38;94156.91;;;21.42;71.62
11345;BME280;5727;42.600;23.028;2022-07-17T03:56:07;94154.97;;;21.42;71.16
11345;BME280;5727;42.600;23.028;2022-07-17T03:58:34;94149.28;;;21.47;72.35
11345;BME280;5727;42.600;23.028;2022-07-17T04:01:01;94146.97;;;21.49;72.54
11345;BME280;5727;42.600;23.028;2022-07-17T04:03:27;94157.66;;;21.49;72.40
11345;BME280;5727;42.600;23.028;2022-07-17T04:05:54;94164.47;;;21.54;71.33
11345;BME280;5727;42.600;23.028;2022-07-17T04:08:21;94167.56;;;21.45;70.91
11345;BME280;5727;42.600;23.028;2022-07-17T04:10:48;94167.53;;;21.52;71.79
11345;BME280;5727;42.600;23.028;2022-07-17T04:13:16;94167.53;;;21.49;70.42
11345;BME280;5727;42.600;23.028;2022-07-17T04:15:43;94172.84;;;21.59;71.76
11345;BME280;5727;42.600;23.028;2022-07-17T04:18:18;94168.28;;;21.56;71.28
11345;BME280;5727;42.600;23.028;2022-07-17T04:20:45;94173.63;;;21.56;70.60
11345;BME280;5727;42.600;23.028;2022-07-17T04:23:12;94175.53;;;21.56;70.65
11345;BME280;5727;42.600;23.028;2022-07-17T04:25:39;94183.13;;;21.57;70.13
11345;BME280;5727;42.600;23.028;2022-07-17T04:28:06;94183.50;;;21.59;71.53
11345;BME280;5727;42.600;23.028;2022-07-17T04:30:34;94188.13;;;21.55;72.13
11345;BME280;5727;42.600;23.028;2022-07-17T04:33:01;94187.34;;;21.55;70.54
11345;BME280;5727;42.600;23.028;2022-07-17T04:35:28;94187.72;;;21.57;70.63
11345;BME280;5727;42.600;23.028;2022-07-17T04:37:55;94189.63;;;21.56;70.20
11345;BME280;5727;42.600;23.028;2022-07-17T04:40:22;94189.66;;;21.49;69.74
11345;BME280;5727;42.600;23.028;2022-07-17T04:42:49;94197.63;;;21.60;69.32
11345;BME280;5727;42.600;23.028;2022-07-17T04:45:15;94190.41;;;21.53;70.64
11345;BME280;5727;42.600;23.028;2022-07-17T04:47:44;94193.44;;;21.52;70.75
11345;BME280;5727;42.600;23.028;2022-07-17T04:50:10;94199.53;;;21.66;69.96
11345;BME280;5727;42.600;23.028;2022-07-17T04:52:37;94191.09;;;21.78;70.51
11345;BME280;5727;42.600;23.028;2022-07-17T04:55:04;94198.34;;;21.92;69.83
11345;BME280;5727;42.600;23.028;2022-07-17T04:57:31;94202.16;;;21.98;68.94
11345;BME280;5727;42.600;23.028;2022-07-17T04:59:58;94199.47;;;22.09;68.96
11345;BME280;5727;42.600;23.028;2022-07-17T05:02:25;94199.44;;;22.16;69.72
11345;BME280;5727;42.600;23.028;2022-07-17T05:04:53;94204.03;;;22.19;68.93
11345;BME280;5727;42.600;23.028;2022-07-17T05:07:20;94207.81;;;22.25;67.31
11345;BME280;5727;42.600;23.028;2022-07-17T05:09:47;94206.31;;;22.17;68.36
11345;BME280;5727;42.600;23.028;2022-07-17T05:12:13;94206.75;;;21.91;68.88
11345;BME280;5727;42.600;23.028;2022-07-17T05:14:40;94207.91;;;21.82;68.33
11345;BME280;5727;42.600;23.028;2022-07-17T05:17:07;94215.13;;;21.96;68.29
11345;BME280;5727;42.600;23.028;2022-07-17T05:19:34;94209.41;;;22.05;68.04
11345;BME280;5727;42.600;23.028;2022-07-17T05:22:03;94218.13;;;22.16;67.88
11345;BME280;5727;42.600;23.028;2022-07-17T05:24:30;94216.19;;;22.30;68.30
11345;BME280;5727;42.600;23.028;2022-07-17T05:26:59;94226.47;;;22.35;68.50
11345;BME280;5727;42.600;23.028;2022-07-17T05:29:26;94220.72;;;22.47;66.95
11345;BME280;5727;42.600;23.028;2022-07-17T05:31:53;94214.56;;;22.61;66.43
11345;BME280;5727;42.600;23.028;2022-07-17T05:34:20;94227.19;;;22.57;63.19
11345;BME280;5727;42.600;23.028;2022-07-17T05:36:47;94232.53;;;22.46;63.95
11345;BME280;5727;42.600;23.028;2022-07-17T05:39:15;94230.22;;;22.48;64.88
11345;BME280;5727;42.600;23.028;2022-07-17T05:41:42;94239.00;;;22.63;65.07
11345;BME280;5727;42.600;23.028;2022-07-17T05:44:09;94233.22;;;22.68;65.15
11345;BME280;5727;42.600;23.028;2022-07-17T05:46:36;94229.03;;;22.67;65.08
11345;BME280;5727;42.600;23.028;2022-07-17T05:49:02;94227.53;;;22.66;65.11
11345;BME280;5727;42.600;23.028;2022-07-17T05:51:29;94225.97;;;22.72;65.47
11345;BME280;5727;42.600;23.028;2022-07-17T05:53:56;94228.22;;;22.77;63.81
11345;BME280;5727;42.600;23.028;2022-07-17T05:56:24;94225.91;;;22.79;63.57
11345;BME280;5727;42.600;23.028;2022-07-17T05:58:51;94229.72;;;22.85;64.88
11345;BME280;5727;42.600;23.028;2022-07-17T06:01:18;94227.41;;;22.87;64.34
11345;BME280;5727;42.600;23.028;2022-07-17T06:03:44;94224.66;;;22.98;64.28
11345;BME280;5727;42.600;23.028;2022-07-17T06:06:11;94236.88;;;22.99;65.29
11345;BME280;5727;42.600;23.028;2022-07-17T06:08:38;94234.13;;;23.09;63.67
11345;BME280;5727;42.600;23.028;2022-07-17T06:11:04;94225.75;;;23.11;62.45
11345;BME280;5727;42.600;23.028;2022-07-17T06:13:33;94222.25;;;23.17;63.36
11345;BME280;5727;42.600;23.028;2022-07-17T06:15:59;94229.50;;;23.20;63.83
11345;BME280;5727;42.600;23.028;2022-07-17T06:18:26;94228.72;;;23.23;63.82
11345;BME280;5727;42.600;23.028;2022-07-17T06:20:53;94227.16;;;23.29;62.50
11345;BME280;5727;42.600;23.028;2022-07-17T06:23:19;94234.81;;;23.27;59.37
11345;BME280;5727;42.600;23.028;2022-07-17T06:25:48;94233.66;;;23.25;57.51
11345;BME280;5727;42.600;23.028;2022-07-17T06:28:15;94231.75;;;23.25;56.40
11345;BME280;5727;42.600;23.028;2022-07-17T06:30:43;94234.84;;;23.24;55.80
11345;BME280;5727;42.600;23.028;2022-07-17T06:33:09;94239.47;;;23.16;55.12
11345;BME280;5727;42.600;23.028;2022-07-17T06:35:36;94232.56;;;23.22;55.21
11345;BME280;5727;42.600;23.028;2022-07-17T06:38:03;94237.09;;;23.25;58.08
11345;BME280;5727;42.600;23.028;2022-07-17T06:40:30;94234.31;;;23.46;57.80
11345;BME280;5727;42.600;23.028;2022-07-17T06:42:56;94236.13;;;23.60;57.55
11345;BME280;5727;42.600;23.028;2022-07-17T06:45:23;94237.25;;;23.63;54.56
11345;BME280;5727;42.600;23.028;2022-07-17T06:47:51;94238.69;;;23.71;55.68
11345;BME280;5727;42.600;23.028;2022-07-17T06:50:18;94237.44;;;23.86;55.06
11345;BME280;5727;42.600;23.028;2022-07-17T06:52:45;94248.81;;;23.97;53.64
11345;BME280;5727;42.600;23.028;2022-07-17T06:55:11;94251.84;;;24.02;53.56
11345;BME280;5727;42.600;23.028;2022-07-17T06:57:38;94242.34;;;23.91;49.51
11345;BME280;5727;42.600;23.028;2022-07-17T07:00:06;94253.09;;;23.87;49.94
11345;BME280;5727;42.600;23.028;2022-07-17T07:02:34;94249.28;;;23.85;49.31
11345;BME280;5727;42.600;23.028;2022-07-17T07:05:02;94253.47;;;23.89;51.34
11345;BME280;5727;42.600;23.028;2022-07-17T07:07:29;94260.63;;;23.99;51.11
11345;BME280;5727;42.600;23.028;2022-07-17T07:09:56;94254.47;;;24.06;48.65
11345;BME280;5727;42.600;23.028;2022-07-17T07:12:23;94259.41;;;24.11;50.54
11345;BME280;5727;42.600;23.028;2022-07-17T07:14:50;94257.34;;;24.25;49.77
11345;BME280;5727;42.600;23.028;2022-07-17T07:17:16;94257.31;;;24.29;47.43
11345;BME280;5727;42.600;23.028;2022-07-17T07:19:43;94265.69;;;24.31;47.91
11345;BME280;5727;42.600;23.028;2022-07-17T07:22:11;94261.88;;;24.32;47.58
11345;BME280;5727;42.600;23.028;2022-07-17T07:24:38;94268.28;;;24.41;48.51
11345;BME280;5727;42.600;23.028;2022-07-17T07:27:05;94274.75;;;24.44;46.22
11345;BME280;5727;42.600;23.028;2022-07-17T07:29:31;94262.00;;;24.55;45.10
11345;BME280;5727;42.600;23.028;2022-07-17T07:31:58;94269.59;;;24.60;46.48
11345;BME280;5727;42.600;23.028;2022-07-17T07:34:25;94269.09;;;24.69;46.80
11345;BME280;5727;42.600;23.028;2022-07-17T07:36:52;94270.56;;;24.77;45.82
11345;BME280;5727;42.600;23.028;2022-07-17T07:39:20;94265.16;;;24.80;45.51
11345;BME280;5727;42.600;23.028;2022-07-17T07:41:47;94268.72;;;24.74;45.24
11345;BME280;5727;42.600;23.028;2022-07-17T07:44:14;94270.97;;;24.75;45.63
11345;BME280;5727;42.600;23.028;2022-07-17T07:49:07;94274.47;;;25.02;45.94
11345;BME280;5727;42.600;23.028;2022-07-17T07:51:34;94278.22;;;25.08;44.79
11345;BME280;5727;42.600;23.028;2022-07-17T07:54:00;94277.00;;;25.13;44.51
11345;BME280;5727;42.600;23.028;2022-07-17T07:56:28;94274.25;;;25.20;44.82
11345;BME280;5727;42.600;23.028;2022-07-17T07:58:55;94276.69;;;25.07;44.81
11345;BME280;5727;42.600;23.028;2022-07-17T08:01:22;94279.72;;;25.09;44.17
11345;BME280;5727;42.600;23.028;2022-07-17T08:03:49;94280.41;;;25.17;46.08
11345;BME280;5727;42.600;23.028;2022-07-17T08:06:16;94274.84;;;25.31;46.12
11345;BME280;5727;42.600;23.028;2022-07-17T08:08:42;94284.59;;;25.48;45.64
11345;BME280;5727;42.600;23.028;2022-07-17T08:11:09;94280.81;;;25.69;43.87
11345;BME280;5727;42.600;23.028;2022-07-17T08:13:38;94275.06;;;25.70;45.04
11345;BME280;5727;42.600;23.028;2022-07-17T08:16:05;94278.06;;;25.76;44.09
11345;BME280;5727;42.600;23.028;2022-07-17T08:18:32;94277.22;;;25.79;43.12
11345;BME280;5727;42.600;23.028;2022-07-17T08:21:00;94271.78;;;25.82;43.36
11345;BME280;5727;42.600;23.028;2022-07-17T08:23:26;94271.00;;;25.85;44.34
11345;BME280;5727;42.600;23.028;2022-07-17T08:25:53;94279.56;;;26.00;43.12
11345;BME280;5727;42.600;23.028;2022-07-17T08:28:20;94281.03;;;26.04;43.64
11345;BME280;5727;42.600;23.028;2022-07-17T08:30:48;94276.13;;;25.99;42.90
11345;BME280;5727;42.600;23.028;2022-07-17T08:33:16;94278.34;;;25.81;43.04
11345;BME280;5727;42.600;23.028;2022-07-17T08:35:43;94281.94;;;25.71;43.15
11345;BME280;5727;42.600;23.028;2022-07-17T08:38:10;94289.59;;;25.73;43.85
11345;BME280;5727;42.600;23.028;2022-07-17T08:40:37;94280.25;;;25.81;42.82
11345;BME280;5727;42.600;23.028;2022-07-17T08:43:06;94281.81;;;25.78;41.05
11345;BME280;5727;42.600;23.028;2022-07-17T08:45:34;94282.72;;;25.72;41.37
11345;BME280;5727;42.600;23.028;2022-07-17T08:48:02;94275.53;;;25.88;42.29
11345;BME280;5727;42.600;23.028;2022-07-17T08:50:31;94280.69;;;26.02;43.98
11345;BME280;5727;42.600;23.028;2022-07-17T08:52:58;94275.97;;;26.10;42.51
11345;BME280;5727;42.600;23.028;2022-07-17T08:55:26;94275.03;;;26.20;42.08
11345;BME280;5727;42.600;23.028;2022-07-17T08:57:53;94272.91;;;26.31;43.12
11345;BME280;5727;42.600;23.028;2022-07-17T09:00:22;94257.06;;;26.37;40.97
11345;BME280;5727;42.600;23.028;2022-07-17T09:02:54;94261.53;;;26.23;41.61
11345;BME280;5727;42.600;23.028;2022-07-17T09:05:24;94260.25;;;26.32;41.49
11345;BME280;5727;42.600;23.028;2022-07-17T09:07:51;94248.50;;;26.45;42.92
11345;BME280;5727;42.600;23.028;2022-07-17T09:10:17;94259.22;;;26.45;41.28
11345;BME280;5727;42.600;23.028;2022-07-17T09:12:44;94269.00;;;26.55;40.99
11345;BME280;5727;42.600;23.028;2022-07-17T09:15:16;94264.66;;;26.61;41.77
11345;BME280;5727;42.600;23.028;2022-07-17T09:17:50;94256.94;;;26.63;40.53
11345;BME280;5727;42.600;23.028;2022-07-17T09:20:18;94254.50;;;26.72;41.19
11345;BME280;5727;42.600;23.028;2022-07-17T09:22:57;94255.72;;;26.68;38.45
11345;BME280;5727;42.600;23.028;2022-07-17T09:25:39;94259.63;;;26.63;39.12
11345;BME280;5727;42.600;23.028;2022-07-17T09:28:08;94257.88;;;26.76;41.10
11345;BME280;5727;42.600;23.028;2022-07-17T09:30:36;94265.31;;;26.88;39.36
11345;BME280;5727;42.600;23.028;2022-07-17T09:33:06;94256.63;;;27.00;39.20
11345;BME280;5727;42.600;23.028;2022-07-17T09:35:33;94269.03;;;26.94;38.68
11345;BME280;5727;42.600;23.028;2022-07-17T09:38:02;94259.41;;;26.77;37.83
11345;BME280;5727;42.600;23.028;2022-07-17T09:40:28;94265.47;;;26.81;38.92
11345;BME280;5727;42.600;23.028;2022-07-17T09:43:09;94250.41;;;26.64;39.00
11345;BME280;5727;42.600;23.028;2022-07-17T09:45:36;94256.81;;;26.51;37.76
11345;BME280;5727;42.600;23.028;2022-07-17T09:48:03;94272.09;;;26.54;39.35
11345;BME280;5727;42.600;23.028;2022-07-17T09:50:32;94270.63;;;26.72;40.22
11345;BME280;5727;42.600;23.028;2022-07-17T09:53:01;94270.28;;;26.90;39.40
11345;BME280;5727;42.600;23.028;2022-07-17T09:55:31;94275.03;;;27.02;39.15
11345;BME280;5727;42.600;23.028;2022-07-17T09:57:59;94273.66;;;26.94;37.68
11345;BME280;5727;42.600;23.028;2022-07-17T10:00:28;94274.91;;;26.89;38.60
11345;BME280;5727;42.600;23.028;2022-07-17T10:02:56;94270.22;;;26.74;39.21
11345;BME280;5727;42.600;23.028;2022-07-17T10:05:23;94259.19;;;26.68;39.88
11345;BME280;5727;42.600;23.028;2022-07-17T10:07:50;94270.91;;;26.78;40.21
11345;BME280;5727;42.600;23.028;2022-07-17T10:10:18;94256.22;;;26.82;39.10
11345;BME280;5727;42.600;23.028;2022-07-17T10:12:48;94254.75;;;26.97;40.09
11345;BME280;5727;42.600;23.028;2022-07-17T10:15:16;94255.09;;;26.99;38.01
11345;BME280;5727;42.600;23.028;2022-07-17T10:17:43;94256.44;;;26.91;37.86
11345;BME280;5727;42.600;23.028;2022-07-17T10:20:10;94247.91;;;27.12;38.68
11345;BME280;5727;42.600;23.028;2022-07-17T10:22:43;94248.91;;;27.38;38.31
11345;BME280;5727;42.600;23.028;2022-07-17T10:25:13;94250.69;;;27.61;37.14
11345;BME280;5727;42.600;23.028;2022-07-17T10:27:47;94255.56;;;27.30;36.93
11345;BME280;5727;42.600;23.028;2022-07-17T10:30:23;94251.50;;;27.42;37.95
11345;BME280;5727;42.600;23.028;2022-07-17T10:32:52;94249.19;;;27.60;38.26
11345;BME280;5727;42.600;23.028;2022-07-17T10:35:19;94250.28;;;27.62;36.19
11345;BME280;5727;42.600;23.028;2022-07-17T10:37:46;94238.75;;;27.78;37.18
11345;BME280;5727;42.600;23.028;2022-07-17T10:40:16;94236.53;;;28.05;37.71
11345;BME280;5727;42.600;23.028;2022-07-17T10:42:55;94241.69;;;27.99;35.42
11345;BME280;5727;42.600;23.028;2022-07-17T10:45:24;94230.81;;;27.71;34.98
11345;BME280;5727;42.600;23.028;2022-07-17T10:47:54;94229.66;;;27.72;36.19
11345;BME280;5727;42.600;23.028;2022-07-17T10:50:23;94236.97;;;27.87;34.93
11345;BME280;5727;42.600;23.028;2022-07-17T10:53:05;94233.53;;;27.71;34.36
11345;BME280;5727;42.600;23.028;2022-07-17T10:55:32;94242.38;;;27.71;34.44
11345;BME280;5727;42.600;23.028;2022-07-17T10:58:01;94234.78;;;27.82;34.83
11345;BME280;5727;42.600;23.028;2022-07-17T11:00:28;94225.78;;;27.73;34.98
11345;BME280;5727;42.600;23.028;2022-07-17T11:02:55;94223.91;;;27.86;36.70
11345;BME280;5727;42.600;23.028;2022-07-17T11:05:22;94236.47;;;28.09;35.56
11345;BME280;5727;42.600;23.028;2022-07-17T11:07:54;94234.69;;;28.18;34.02
11345;BME280;5727;42.600;23.028;2022-07-17T11:10:22;94229.94;;;28.22;33.62
11345;BME280;5727;42.600;23.028;2022-07-17T11:12:51;94230.28;;;28.24;33.86
11345;BME280;5727;42.600;23.028;2022-07-17T11:15:19;94237.63;;;28.24;33.88
11345;BME280;5727;42.600;23.028;2022-07-17T11:17:48;94234.41;;;28.29;33.57
11345;BME280;5727;42.600;23.028;2022-07-17T11:20:15;94226.94;;;28.20;34.38
11345;BME280;5727;42.600;23.028;2022-07-17T11:22:43;94232.91;;;28.28;34.69
11345;BME280;5727;42.600;23.028;2022-07-17T11:25:10;94228.56;;;28.30;34.65
11345;BME280;5727;42.600;23.028;2022-07-17T11:27:37;94222.75;;;28.03;34.01
11345;BME280;5727;42.600;23.028;2022-07-17T11:30:09;94219.22;;;28.06;34.97
11345;BME280;5727;42.600;23.028;2022-07-17T11:32:40;94226.19;;;28.20;34.98
11345;BME280;5727;42.600;23.028;2022-07-17T11:35:18;94225.88;;;28.30;34.75
11345;BME280;5727;42.600;23.028;2022-07-17T11:37:48;94210.22;;;28.41;34.09
11345;BME280;5727;42.600;23.028;2022-07-17T11:40:14;94222.38;;;29.16;32.62
11345;BME280;5727;42.600;23.028;2022-07-17T11:42:42;94205.97;;;30.63;30.22
11345;BME280;5727;42.600;23.028;2022-07-17T11:45:10;94201.75;;;33.44;26.88
11345;BME280;5727;42.600;23.028;2022-07-17T11:47:37;94202.75;;;36.22;22.99
11345;BME280;5727;42.600;23.028;2022-07-17T11:50:07;94196.84;;;37.20;21.68
11345;BME280;5727;42.600;23.028;2022-07-17T11:52:45;94204.59;;;36.30;22.31
11345;BME280;5727;42.600;23.028;2022-07-17T11:55:14;94207.22;;;37.11;21.50
11345;BME280;5727;42.600;23.028;2022-07-17T11:57:43;94204.06;;;38.39;20.42
11345;BME280;5727;42.600;23.028;2022-07-17T12:00:12;94201.91;;;38.01;20.83
11345;BME280;5727;42.600;23.028;2022-07-17T12:02:39;94199.38;;;37.92;21.54
11345;BME280;5727;42.600;23.028;2022-07-17T12:05:07;94199.72;;;38.16;20.37
11345;BME280;5727;42.600;23.028;2022-07-17T12:07:46;94182.91;;;37.44;21.14
11345;BME280;5727;42.600;23.028;2022-07-17T12:10:15;94196.16;;;36.74;22.54
11345;BME280;5727;42.600;23.028;2022-07-17T12:12:55;94190.91;;;36.25;22.94
11345;BME280;5727;42.600;23.028;2022-07-17T12:15:34;94184.91;;;37.49;21.45
11345;BME280;5727;42.600;23.028;2022-07-17T12:18:02;94179.97;;;37.90;20.92
11345;BME280;5727;42.600;23.028;2022-07-17T12:20:42;94192.47;;;38.07;21.14
11345;BME280;5727;42.600;23.028;2022-07-17T12:23:09;94183.44;;;37.85;21.25
11345;BME280;5727;42.600;23.028;2022-07-17T12:25:36;94182.50;;;37.62;20.95
11345;BME280;5727;42.600;23.028;2022-07-17T12:28:03;94185.09;;;39.16;19.88
11345;BME280;5727;42.600;23.028;2022-07-17T12:30:30;94178.06;;;37.65;20.69
11345;BME280;5727;42.600;23.028;2022-07-17T12:32:58;94182.22;;;36.92;21.58
11345;BME280;5727;42.600;23.028;2022-07-17T12:35:25;94186.00;;;36.29;22.05
11345;BME280;5727;42.600;23.028;2022-07-17T12:37:53;94181.34;;;37.06;21.71
11345;BME280;5727;42.600;23.028;2022-07-17T12:40:20;94171.84;;;34.91;23.59
11345;BME280;5727;42.600;23.028;2022-07-17T12:42:46;94174.41;;;36.14;22.65
11345;BME280;5727;42.600;23.028;2022-07-17T12:45:13;94182.94;;;36.67;21.97
11345;BME280;5727;42.600;23.028;2022-07-17T12:47:40;94187.22;;;35.38;23.06
11345;BME280;5727;42.600;23.028;2022-07-17T12:50:08;94184.84;;;34.96;23.66
11345;BME280;5727;42.600;23.028;2022-07-17T12:52:35;94176.31;;;35.53;23.07
11345;BME280;5727;42.600;23.028;2022-07-17T12:55:04;94171.19;;;35.60;22.93
11345;BME280;5727;42.600;23.028;2022-07-17T12:57:31;94176.97;;;35.82;22.87
11345;BME280;5727;42.600;23.028;2022-07-17T12:59:58;94186.59;;;35.14;22.29
11345;BME280;5727;42.600;23.028;2022-07-17T13:02:25;94187.16;;;34.22;24.18
11345;BME280;5727;42.600;23.028;2022-07-17T13:04:51;94185.25;;;33.57;24.64